LiveATC.Net - Listen to live air traffic control over the Internet!


ICAO: KTRI  IATA: TRI   Airport: Tri-Cities Regional Airport
City: Bristol/Johnson/Kingsport   State/Province: Tennessee
Country: United States   Continent: North America
KTRI METAR Weather: KTRI 061053Z 00000KT 1/4SM FG VV003 20/19 A3008 RMK AO2 SLP164 T02000194 $
KTRI Flight Activity (FlightAware)
KTRI Airport Info   (iFlightPlanner)
KTRI VFR Sectional Chart   (iFlightPlanner) 
KTRI IFR Low Altitude Chart   (iFlightPlanner) 
KTRI IFR High Altitude Chart   (iFlightPlanner) 

KTRI Gnd/Twr/App
Feed Status: UP   Listeners: 2
Listen in your browser - HTML5 player (in browser, HTML5)
Click here to listen with your own player (launches your MP3 player)
Archive Access: KTRI Gnd/Twr/App
FacilityFrequency
Tri-Cities Approach/Departure125.500
Tri-Cities Approach/Departure134.425
Tri-Cities Ground121.700
Tri-Cities Tower119.500

NOTICE

Unauthorized use prohibited. See LiveATC.net Terms of Service


Airport/ARTCC Code
Frequency Search
(e.g., 124.400, 128.75)
Site-wide search
 


Browse Feeds
Top 50 Feeds
HF Oceanic Feeds
Coverage Map
Bad Weather Areas

LiveATC FAQ
Offer LiveATC feed
Contact LiveATC.net
Press Inquiries

LiveATC on iPhone
LiveATC on Android

LiveATC Mobile
(Mobile browser)

ATC Audio Archives
Interesting Recordings

LiveATC Forums


Home Page
About LiveATC.net


Terms of Use
Privacy Policy

AIRMETs/SIGMETs

FAA Airport Status
NAS Status
Arrival Demand


Server Software By:
Icecast.org
Liquidsoap